sensor_id;sensor_type;location;lat;lon;timestamp;P1;durP1;ratioP1;P2;durP2;ratioP2
2177;SDS011;1095;50.992;6.798;2023-08-12T00:00:59;27.38;;;21.73;;
2177;SDS011;1095;50.992;6.798;2023-08-12T00:03:25;26.00;;;21.58;;
2177;SDS011;1095;50.992;6.798;2023-08-12T00:05:53;27.23;;;21.25;;
2177;SDS011;1095;50.992;6.798;2023-08-12T00:08:21;29.42;;;21.20;;
2177;SDS011;1095;50.992;6.798;2023-08-12T00:10:48;29.40;;;21.90;;
2177;SDS011;1095;50.992;6.798;2023-08-12T00:13:15;26.42;;;21.08;;
2177;SDS011;1095;50.992;6.798;2023-08-12T00:15:42;27.27;;;21.25;;
2177;SDS011;1095;50.992;6.798;2023-08-12T00:18:09;27.58;;;21.25;;
2177;SDS011;1095;50.992;6.798;2023-08-12T00:20:36;26.15;;;19.98;;
2177;SDS011;1095;50.992;6.798;2023-08-12T00:23:05;25.08;;;20.63;;
2177;SDS011;1095;50.992;6.798;2023-08-12T00:25:32;31.38;;;21.00;;
2177;SDS011;1095;50.992;6.798;2023-08-12T00:27:59;27.95;;;20.98;;
2177;SDS011;1095;50.992;6.798;2023-08-12T00:30:25;29.45;;;22.45;;
2177;SDS011;1095;50.992;6.798;2023-08-12T00:32:52;20.77;;;14.82;;
2177;SDS011;1095;50.992;6.798;2023-08-12T00:35:21;17.83;;;14.45;;
2177;SDS011;1095;50.992;6.798;2023-08-12T00:38:07;24.55;;;16.58;;
2177;SDS011;1095;50.992;6.798;2023-08-12T00:44:20;26.90;;;19.97;;
2177;SDS011;1095;50.992;6.798;2023-08-12T00:47:24;25.85;;;22.02;;
2177;SDS011;1095;50.992;6.798;2023-08-12T00:53:23;30.65;;;20.58;;
2177;SDS011;1095;50.992;6.798;2023-08-12T00:56:06;22.65;;;19.35;;
2177;SDS011;1095;50.992;6.798;2023-08-12T00:58:38;31.60;;;22.20;;
2177;SDS011;1095;50.992;6.798;2023-08-12T01:02:15;31.90;;;24.35;;
2177;SDS011;1095;50.992;6.798;2023-08-12T01:04:57;34.95;;;26.38;;
2177;SDS011;1095;50.992;6.798;2023-08-12T01:07:33;37.15;;;26.58;;
2177;SDS011;1095;50.992;6.798;2023-08-12T01:10:09;37.35;;;27.25;;
2177;SDS011;1095;50.992;6.798;2023-08-12T01:12:43;39.05;;;27.08;;
2177;SDS011;1095;50.992;6.798;2023-08-12T01:15:15;37.55;;;27.83;;
2177;SDS011;1095;50.992;6.798;2023-08-12T01:17:47;35.33;;;28.17;;
2177;SDS011;1095;50.992;6.798;2023-08-12T01:20:17;39.80;;;28.10;;
2177;SDS011;1095;50.992;6.798;2023-08-12T01:22:49;34.28;;;26.88;;
2177;SDS011;1095;50.992;6.798;2023-08-12T01:27:49;34.53;;;27.42;;
2177;SDS011;1095;50.992;6.798;2023-08-12T01:30:16;34.70;;;25.65;;
2177;SDS011;1095;50.992;6.798;2023-08-12T01:32:45;37.30;;;26.15;;
2177;SDS011;1095;50.992;6.798;2023-08-12T01:35:21;31.33;;;24.25;;
2177;SDS011;1095;50.992;6.798;2023-08-12T01:37:52;28.13;;;23.30;;
2177;SDS011;1095;50.992;6.798;2023-08-12T01:40:21;30.20;;;23.35;;
2177;SDS011;1095;50.992;6.798;2023-08-12T01:42:49;28.55;;;23.38;;
2177;SDS011;1095;50.992;6.798;2023-08-12T01:45:18;26.40;;;21.85;;
2177;SDS011;1095;50.992;6.798;2023-08-12T01:47:45;29.55;;;21.27;;
2177;SDS011;1095;50.992;6.798;2023-08-12T01:50:12;30.88;;;22.88;;
2177;SDS011;1095;50.992;6.798;2023-08-12T01:52:40;31.35;;;23.50;;
2177;SDS011;1095;50.992;6.798;2023-08-12T01:55:07;27.73;;;22.55;;
2177;SDS011;1095;50.992;6.798;2023-08-12T01:57:34;30.95;;;22.60;;
2177;SDS011;1095;50.992;6.798;2023-08-12T02:00:02;30.33;;;23.33;;
2177;SDS011;1095;50.992;6.798;2023-08-12T02:02:30;29.80;;;22.70;;
2177;SDS011;1095;50.992;6.798;2023-08-12T02:04:56;30.15;;;22.60;;
2177;SDS011;1095;50.992;6.798;2023-08-12T02:07:23;30.25;;;23.08;;
2177;SDS011;1095;50.992;6.798;2023-08-12T02:09:50;29.23;;;23.48;;
2177;SDS011;1095;50.992;6.798;2023-08-12T02:12:17;29.13;;;23.05;;
2177;SDS011;1095;50.992;6.798;2023-08-12T02:14:46;31.23;;;24.60;;
2177;SDS011;1095;50.992;6.798;2023-08-12T02:17:24;32.90;;;24.33;;
2177;SDS011;1095;50.992;6.798;2023-08-12T02:20:01;36.03;;;25.25;;
2177;SDS011;1095;50.992;6.798;2023-08-12T02:22:29;28.88;;;24.30;;
2177;SDS011;1095;50.992;6.798;2023-08-12T02:24:56;30.42;;;25.00;;
2177;SDS011;1095;50.992;6.798;2023-08-12T02:27:22;31.75;;;25.50;;
2177;SDS011;1095;50.992;6.798;2023-08-12T02:29:50;29.70;;;24.20;;
2177;SDS011;1095;50.992;6.798;2023-08-12T02:32:20;35.95;;;25.85;;
2177;SDS011;1095;50.992;6.798;2023-08-12T02:34:47;38.00;;;25.25;;
2177;SDS011;1095;50.992;6.798;2023-08-12T02:37:13;30.40;;;24.08;;
2177;SDS011;1095;50.992;6.798;2023-08-12T02:39:40;29.77;;;23.67;;
2177;SDS011;1095;50.992;6.798;2023-08-12T02:42:07;34.08;;;23.40;;
2177;SDS011;1095;50.992;6.798;2023-08-12T02:44:33;29.67;;;22.67;;
2177;SDS011;1095;50.992;6.798;2023-08-12T02:47:00;28.27;;;23.00;;
2177;SDS011;1095;50.992;6.798;2023-08-12T02:49:28;29.90;;;23.02;;
2177;SDS011;1095;50.992;6.798;2023-08-12T02:51:54;26.73;;;21.33;;
2177;SDS011;1095;50.992;6.798;2023-08-12T02:54:21;29.85;;;23.02;;
2177;SDS011;1095;50.992;6.798;2023-08-12T02:56:49;27.55;;;21.77;;
2177;SDS011;1095;50.992;6.798;2023-08-12T02:59:16;26.50;;;22.08;;
2177;SDS011;1095;50.992;6.798;2023-08-12T03:01:43;26.55;;;20.73;;
2177;SDS011;1095;50.992;6.798;2023-08-12T03:04:09;29.33;;;22.30;;
2177;SDS011;1095;50.992;6.798;2023-08-12T03:06:37;31.45;;;21.67;;
2177;SDS011;1095;50.992;6.798;2023-08-12T03:09:04;30.10;;;21.98;;
2177;SDS011;1095;50.992;6.798;2023-08-12T03:11:31;29.13;;;22.13;;
2177;SDS011;1095;50.992;6.798;2023-08-12T03:13:58;27.13;;;22.10;;
2177;SDS011;1095;50.992;6.798;2023-08-12T03:16:25;30.63;;;22.70;;
2177;SDS011;1095;50.992;6.798;2023-08-12T03:18:53;31.35;;;23.30;;
2177;SDS011;1095;50.992;6.798;2023-08-12T03:21:22;32.20;;;24.23;;
2177;SDS011;1095;50.992;6.798;2023-08-12T03:23:59;30.45;;;23.92;;
2177;SDS011;1095;50.992;6.798;2023-08-12T03:26:48;30.50;;;23.73;;
2177;SDS011;1095;50.992;6.798;2023-08-12T03:36:40;33.72;;;26.90;;
2177;SDS011;1095;50.992;6.798;2023-08-12T07:20:35;9.00;;;8.10;;
2177;SDS011;1095;50.992;6.798;2023-08-12T08:05:00;9.70;;;6.20;;
2177;SDS011;1095;50.992;6.798;2023-08-12T08:07:27;11.70;;;6.20;;
2177;SDS011;1095;50.992;6.798;2023-08-12T11:25:44;4.13;;;3.13;;
2177;SDS011;1095;50.992;6.798;2023-08-12T11:28:15;3.53;;;3.22;;
2177;SDS011;1095;50.992;6.798;2023-08-12T11:30:44;3.30;;;3.00;;
2177;SDS011;1095;50.992;6.798;2023-08-12T11:33:11;3.70;;;3.10;;
2177;SDS011;1095;50.992;6.798;2023-08-12T11:35:38;3.70;;;2.97;;
2177;SDS011;1095;50.992;6.798;2023-08-12T11:38:06;3.78;;;2.95;;
2177;SDS011;1095;50.992;6.798;2023-08-12T11:40:41;4.07;;;3.13;;
2177;SDS011;1095;50.992;6.798;2023-08-12T11:43:20;2.58;;;2.38;;
2177;SDS011;1095;50.992;6.798;2023-08-12T11:45:47;5.18;;;3.38;;
2177;SDS011;1095;50.992;6.798;2023-08-12T11:48:14;4.45;;;3.03;;
2177;SDS011;1095;50.992;6.798;2023-08-12T11:50:41;4.50;;;3.30;;
2177;SDS011;1095;50.992;6.798;2023-08-12T11:53:07;5.40;;;3.10;;
2177;SDS011;1095;50.992;6.798;2023-08-12T11:55:34;5.40;;;2.70;;
2177;SDS011;1095;50.992;6.798;2023-08-12T11:58:02;5.00;;;3.30;;
2177;SDS011;1095;50.992;6.798;2023-08-12T12:00:30;5.28;;;3.15;;
2177;SDS011;1095;50.992;6.798;2023-08-12T12:02:59;4.38;;;3.13;;
2177;SDS011;1095;50.992;6.798;2023-08-12T12:05:27;3.63;;;3.05;;
2177;SDS011;1095;50.992;6.798;2023-08-12T12:07:55;3.88;;;3.28;;
2177;SDS011;1095;50.992;6.798;2023-08-12T12:10:25;3.72;;;2.88;;
2177;SDS011;1095;50.992;6.798;2023-08-12T12:12:54;3.42;;;3.03;;
2177;SDS011;1095;50.992;6.798;2023-08-12T12:15:26;3.72;;;3.08;;
2177;SDS011;1095;50.992;6.798;2023-08-12T12:18:08;4.55;;;3.47;;
2177;SDS011;1095;50.992;6.798;2023-08-12T12:20:36;5.97;;;3.40;;
2177;SDS011;1095;50.992;6.798;2023-08-12T12:23:05;5.07;;;3.47;;
2177;SDS011;1095;50.992;6.798;2023-08-12T12:25:33;3.22;;;2.92;;
2177;SDS011;1095;50.992;6.798;2023-08-12T12:28:00;4.60;;;3.22;;
2177;SDS011;1095;50.992;6.798;2023-08-12T12:30:32;4.75;;;3.42;;
2177;SDS011;1095;50.992;6.798;2023-08-12T12:33:09;4.30;;;3.08;;
2177;SDS011;1095;50.992;6.798;2023-08-12T12:35:44;4.10;;;3.10;;
2177;SDS011;1095;50.992;6.798;2023-08-12T12:38:20;6.75;;;3.20;;
2177;SDS011;1095;50.992;6.798;2023-08-12T12:44:32;5.07;;;3.10;;
2177;SDS011;1095;50.992;6.798;2023-08-12T13:21:45;2.42;;;2.22;;
2177;SDS011;1095;50.992;6.798;2023-08-12T13:41:55;3.38;;;2.90;;
2177;SDS011;1095;50.992;6.798;2023-08-12T13:44:39;3.60;;;3.30;;
2177;SDS011;1095;50.992;6.798;2023-08-12T13:47:08;3.70;;;3.22;;
2177;SDS011;1095;50.992;6.798;2023-08-12T13:49:44;4.13;;;3.30;;
2177;SDS011;1095;50.992;6.798;2023-08-12T13:52:23;5.68;;;3.53;;
2177;SDS011;1095;50.992;6.798;2023-08-12T13:57:42;4.07;;;3.22;;
2177;SDS011;1095;50.992;6.798;2023-08-12T14:00:12;4.75;;;3.65;;
2177;SDS011;1095;50.992;6.798;2023-08-12T14:02:41;7.05;;;3.67;;
2177;SDS011;1095;50.992;6.798;2023-08-12T14:05:13;5.63;;;3.72;;
2177;SDS011;1095;50.992;6.798;2023-08-12T14:07:50;4.68;;;2.90;;
2177;SDS011;1095;50.992;6.798;2023-08-12T14:10:19;3.42;;;2.55;;
2177;SDS011;1095;50.992;6.798;2023-08-12T14:12:53;3.05;;;2.45;;
2177;SDS011;1095;50.992;6.798;2023-08-12T14:16:38;2.97;;;2.25;;
2177;SDS011;1095;50.992;6.798;2023-08-12T14:18:41;4.15;;;2.78;;
2177;SDS011;1095;50.992;6.798;2023-08-12T14:21:21;4.18;;;1.95;;
2177;SDS011;1095;50.992;6.798;2023-08-12T14:24:14;2.72;;;2.15;;
2177;SDS011;1095;50.992;6.798;2023-08-12T14:29:45;3.03;;;2.40;;
2177;SDS011;1095;50.992;6.798;2023-08-12T14:32:12;2.15;;;1.83;;
2177;SDS011;1095;50.992;6.798;2023-08-12T14:34:41;2.33;;;1.83;;
2177;SDS011;1095;50.992;6.798;2023-08-12T14:37:10;3.35;;;2.53;;
2177;SDS011;1095;50.992;6.798;2023-08-12T14:39:36;3.65;;;2.45;;
2177;SDS011;1095;50.992;6.798;2023-08-12T14:42:05;2.38;;;1.92;;
2177;SDS011;1095;50.992;6.798;2023-08-12T14:44:33;2.63;;;1.88;;
2177;SDS011;1095;50.992;6.798;2023-08-12T14:47:00;2.60;;;2.00;;
2177;SDS011;1095;50.992;6.798;2023-08-12T14:49:26;5.20;;;2.40;;
2177;SDS011;1095;50.992;6.798;2023-08-12T14:51:55;2.05;;;1.90;;
2177;SDS011;1095;50.992;6.798;2023-08-12T14:54:22;3.15;;;2.10;;
2177;SDS011;1095;50.992;6.798;2023-08-12T14:56:49;3.55;;;2.60;;
2177;SDS011;1095;50.992;6.798;2023-08-12T14:59:18;1.73;;;1.63;;
2177;SDS011;1095;50.992;6.798;2023-08-12T15:01:45;4.07;;;2.30;;
2177;SDS011;1095;50.992;6.798;2023-08-12T15:04:11;2.72;;;2.08;;
2177;SDS011;1095;50.992;6.798;2023-08-12T15:06:38;2.03;;;1.67;;
2177;SDS011;1095;50.992;6.798;2023-08-12T15:09:05;4.55;;;2.38;;
2177;SDS011;1095;50.992;6.798;2023-08-12T15:11:32;5.40;;;2.72;;
2177;SDS011;1095;50.992;6.798;2023-08-12T15:13:58;3.50;;;2.67;;
2177;SDS011;1095;50.992;6.798;2023-08-12T15:16:26;3.20;;;2.42;;
2177;SDS011;1095;50.992;6.798;2023-08-12T15:18:53;3.10;;;2.42;;
2177;SDS011;1095;50.992;6.798;2023-08-12T15:21:19;5.10;;;2.25;;
2177;SDS011;1095;50.992;6.798;2023-08-12T15:23:46;4.88;;;2.45;;
2177;SDS011;1095;50.992;6.798;2023-08-12T15:26:13;4.53;;;2.85;;
2177;SDS011;1095;50.992;6.798;2023-08-12T15:28:39;3.28;;;2.65;;
2177;SDS011;1095;50.992;6.798;2023-08-12T15:31:06;4.65;;;3.95;;
2177;SDS011;1095;50.992;6.798;2023-08-12T15:33:34;3.15;;;2.30;;
2177;SDS011;1095;50.992;6.798;2023-08-12T15:36:00;3.92;;;2.65;;
2177;SDS011;1095;50.992;6.798;2023-08-12T15:38:27;2.33;;;2.10;;
2177;SDS011;1095;50.992;6.798;2023-08-12T15:40:53;3.38;;;2.28;;
2177;SDS011;1095;50.992;6.798;2023-08-12T15:43:20;3.35;;;2.30;;
2177;SDS011;1095;50.992;6.798;2023-08-12T15:45:47;3.25;;;2.33;;
2177;SDS011;1095;50.992;6.798;2023-08-12T15:48:13;3.97;;;2.40;;
2177;SDS011;1095;50.992;6.798;2023-08-12T15:50:42;4.15;;;2.53;;
2177;SDS011;1095;50.992;6.798;2023-08-12T15:53:10;3.22;;;2.50;;
2177;SDS011;1095;50.992;6.798;2023-08-12T15:55:36;2.22;;;1.88;;
2177;SDS011;1095;50.992;6.798;2023-08-12T15:58:03;5.68;;;2.67;;
2177;SDS011;1095;50.992;6.798;2023-08-12T16:00:30;6.68;;;2.70;;
2177;SDS011;1095;50.992;6.798;2023-08-12T16:02:56;3.03;;;2.70;;
2177;SDS011;1095;50.992;6.798;2023-08-12T16:05:23;4.30;;;2.10;;
2177;SDS011;1095;50.992;6.798;2023-08-12T16:07:51;3.67;;;2.58;;
2177;SDS011;1095;50.992;6.798;2023-08-12T16:10:17;3.55;;;2.72;;
2177;SDS011;1095;50.992;6.798;2023-08-12T16:12:44;4.55;;;2.83;;
2177;SDS011;1095;50.992;6.798;2023-08-12T16:15:11;6.93;;;3.10;;
2177;SDS011;1095;50.992;6.798;2023-08-12T16:17:37;6.28;;;2.72;;
2177;SDS011;1095;50.992;6.798;2023-08-12T16:20:04;4.40;;;3.08;;
2177;SDS011;1095;50.992;6.798;2023-08-12T16:22:32;3.00;;;2.67;;
2177;SDS011;1095;50.992;6.798;2023-08-12T16:25:00;4.28;;;2.80;;
2177;SDS011;1095;50.992;6.798;2023-08-12T16:27:27;6.25;;;2.67;;
2177;SDS011;1095;50.992;6.798;2023-08-12T16:29:54;5.75;;;3.10;;
2177;SDS011;1095;50.992;6.798;2023-08-12T16:32:20;5.88;;;3.30;;
2177;SDS011;1095;50.992;6.798;2023-08-12T16:34:47;5.70;;;2.85;;
2177;SDS011;1095;50.992;6.798;2023-08-12T16:37:13;5.05;;;2.88;;
2177;SDS011;1095;50.992;6.798;2023-08-12T16:39:40;7.80;;;3.17;;
2177;SDS011;1095;50.992;6.798;2023-08-12T16:42:08;5.15;;;2.92;;
2177;SDS011;1095;50.992;6.798;2023-08-12T16:44:35;6.53;;;3.17;;
2177;SDS011;1095;50.992;6.798;2023-08-12T16:47:01;5.53;;;2.90;;
2177;SDS011;1095;50.992;6.798;2023-08-12T16:49:28;7.45;;;3.20;;
2177;SDS011;1095;50.992;6.798;2023-08-12T16:51:55;8.50;;;2.90;;
2177;SDS011;1095;50.992;6.798;2023-08-12T16:54:21;6.20;;;3.10;;
2177;SDS011;1095;50.992;6.798;2023-08-12T16:56:48;4.53;;;2.85;;
2177;SDS011;1095;50.992;6.798;2023-08-12T16:59:16;4.68;;;3.38;;
2177;SDS011;1095;50.992;6.798;2023-08-12T17:01:42;6.93;;;3.30;;
2177;SDS011;1095;50.992;6.798;2023-08-12T17:04:11;5.45;;;3.08;;
2177;SDS011;1095;50.992;6.798;2023-08-12T17:06:38;7.25;;;2.75;;
2177;SDS011;1095;50.992;6.798;2023-08-12T17:09:05;6.78;;;3.20;;
2177;SDS011;1095;50.992;6.798;2023-08-12T17:11:31;4.40;;;2.92;;
2177;SDS011;1095;50.992;6.798;2023-08-12T17:13:58;8.35;;;4.05;;
2177;SDS011;1095;50.992;6.798;2023-08-12T17:16:26;6.10;;;3.33;;
2177;SDS011;1095;50.992;6.798;2023-08-12T17:18:53;5.05;;;3.00;;
2177;SDS011;1095;50.992;6.798;2023-08-12T17:21:19;6.35;;;3.25;;
2177;SDS011;1095;50.992;6.798;2023-08-12T17:23:46;7.32;;;3.35;;
2177;SDS011;1095;50.992;6.798;2023-08-12T17:26:12;3.85;;;2.83;;
2177;SDS011;1095;50.992;6.798;2023-08-12T17:28:39;4.20;;;3.10;;
2177;SDS011;1095;50.992;6.798;2023-08-12T17:31:05;4.75;;;3.20;;
2177;SDS011;1095;50.992;6.798;2023-08-12T17:33:34;7.25;;;3.60;;
2177;SDS011;1095;50.992;6.798;2023-08-12T17:36:01;7.65;;;3.53;;
2177;SDS011;1095;50.992;6.798;2023-08-12T17:38:28;8.60;;;3.55;;
2177;SDS011;1095;50.992;6.798;2023-08-12T17:40:54;5.45;;;3.05;;
2177;SDS011;1095;50.992;6.798;2023-08-12T17:43:21;8.05;;;3.45;;
2177;SDS011;1095;50.992;6.798;2023-08-12T17:45:48;5.38;;;3.33;;
2177;SDS011;1095;50.992;6.798;2023-08-12T17:48:14;6.82;;;3.35;;
2177;SDS011;1095;50.992;6.798;2023-08-12T17:50:42;4.40;;;2.95;;
2177;SDS011;1095;50.992;6.798;2023-08-12T17:53:09;8.63;;;3.50;;
2177;SDS011;1095;50.992;6.798;2023-08-12T17:55:36;6.07;;;3.47;;
2177;SDS011;1095;50.992;6.798;2023-08-12T17:58:03;6.05;;;3.30;;
2177;SDS011;1095;50.992;6.798;2023-08-12T18:00:30;6.57;;;3.30;;
2177;SDS011;1095;50.992;6.798;2023-08-12T18:02:57;6.95;;;3.28;;
2177;SDS011;1095;50.992;6.798;2023-08-12T18:05:24;5.93;;;3.38;;
2177;SDS011;1095;50.992;6.798;2023-08-12T18:07:52;9.40;;;3.70;;
2177;SDS011;1095;50.992;6.798;2023-08-12T18:10:19;6.97;;;3.85;;
2177;SDS011;1095;50.992;6.798;2023-08-12T18:12:45;5.70;;;4.32;;
2177;SDS011;1095;50.992;6.798;2023-08-12T18:15:12;6.35;;;3.60;;
2177;SDS011;1095;50.992;6.798;2023-08-12T18:17:39;6.75;;;3.40;;
2177;SDS011;1095;50.992;6.798;2023-08-12T18:20:06;7.70;;;3.60;;
2177;SDS011;1095;50.992;6.798;2023-08-12T18:22:34;5.93;;;3.42;;
2177;SDS011;1095;50.992;6.798;2023-08-12T18:25:02;5.75;;;3.22;;
2177;SDS011;1095;50.992;6.798;2023-08-12T18:27:29;6.35;;;2.97;;
2177;SDS011;1095;50.992;6.798;2023-08-12T18:29:56;6.20;;;3.30;;
2177;SDS011;1095;50.992;6.798;2023-08-12T18:32:25;4.97;;;3.38;;
2177;SDS011;1095;50.992;6.798;2023-08-12T18:34:52;6.78;;;3.78;;
2177;SDS011;1095;50.992;6.798;2023-08-12T18:37:19;6.93;;;3.42;;
2177;SDS011;1095;50.992;6.798;2023-08-12T18:39:45;5.85;;;3.42;;
2177;SDS011;1095;50.992;6.798;2023-08-12T18:42:13;9.27;;;3.42;;
2177;SDS011;1095;50.992;6.798;2023-08-12T18:44:40;6.60;;;3.70;;
2177;SDS011;1095;50.992;6.798;2023-08-12T18:47:09;8.15;;;3.50;;
2177;SDS011;1095;50.992;6.798;2023-08-12T18:49:35;10.70;;;3.65;;
2177;SDS011;1095;50.992;6.798;2023-08-12T18:52:02;7.40;;;3.60;;
2177;SDS011;1095;50.992;6.798;2023-08-12T18:54:29;8.32;;;3.80;;
2177;SDS011;1095;50.992;6.798;2023-08-12T18:56:56;5.82;;;3.90;;
2177;SDS011;1095;50.992;6.798;2023-08-12T18:59:24;5.80;;;3.88;;
2177;SDS011;1095;50.992;6.798;2023-08-12T19:01:51;7.03;;;3.90;;
2177;SDS011;1095;50.992;6.798;2023-08-12T19:04:18;6.18;;;3.85;;
2177;SDS011;1095;50.992;6.798;2023-08-12T19:06:44;7.60;;;3.88;;
2177;SDS011;1095;50.992;6.798;2023-08-12T19:09:11;8.38;;;4.05;;
2177;SDS011;1095;50.992;6.798;2023-08-12T19:11:41;8.00;;;3.80;;
2177;SDS011;1095;50.992;6.798;2023-08-12T19:14:08;6.88;;;3.95;;
2177;SDS011;1095;50.992;6.798;2023-08-12T19:16:36;7.28;;;4.00;;
2177;SDS011;1095;50.992;6.798;2023-08-12T19:19:03;8.82;;;3.80;;
2177;SDS011;1095;50.992;6.798;2023-08-12T19:21:35;7.35;;;3.50;;
2177;SDS011;1095;50.992;6.798;2023-08-12T19:24:08;8.15;;;3.90;;
2177;SDS011;1095;50.992;6.798;2023-08-12T19:26:35;7.82;;;4.07;;
2177;SDS011;1095;50.992;6.798;2023-08-12T19:29:02;8.32;;;3.70;;
2177;SDS011;1095;50.992;6.798;2023-08-12T19:31:29;6.68;;;4.18;;
2177;SDS011;1095;50.992;6.798;2023-08-12T19:33:57;4.78;;;3.80;;
2177;SDS011;1095;50.992;6.798;2023-08-12T19:36:24;7.65;;;4.22;;
2177;SDS011;1095;50.992;6.798;2023-08-12T19:38:50;5.05;;;3.35;;
2177;SDS011;1095;50.992;6.798;2023-08-12T19:41:17;8.93;;;4.20;;
2177;SDS011;1095;50.992;6.798;2023-08-12T19:43:44;5.82;;;3.85;;
2177;SDS011;1095;50.992;6.798;2023-08-12T19:46:10;7.32;;;3.95;;
2177;SDS011;1095;50.992;6.798;2023-08-12T19:48:37;8.90;;;4.40;;
2177;SDS011;1095;50.992;6.798;2023-08-12T19:51:05;8.57;;;3.85;;
2177;SDS011;1095;50.992;6.798;2023-08-12T19:53:32;9.15;;;4.40;;
2177;SDS011;1095;50.992;6.798;2023-08-12T19:55:59;6.38;;;3.85;;
2177;SDS011;1095;50.992;6.798;2023-08-12T19:58:25;8.98;;;4.55;;
2177;SDS011;1095;50.992;6.798;2023-08-12T20:00:52;6.95;;;4.05;;
2177;SDS011;1095;50.992;6.798;2023-08-12T20:03:19;7.38;;;4.18;;
2177;SDS011;1095;50.992;6.798;2023-08-12T20:05:46;7.00;;;4.22;;
2177;SDS011;1095;50.992;6.798;2023-08-12T20:08:15;7.95;;;4.30;;
2177;SDS011;1095;50.992;6.798;2023-08-12T20:10:41;7.40;;;4.03;;
2177;SDS011;1095;50.992;6.798;2023-08-12T20:13:08;6.20;;;4.45;;
2177;SDS011;1095;50.992;6.798;2023-08-12T20:15:35;6.20;;;3.90;;
2177;SDS011;1095;50.992;6.798;2023-08-12T20:18:01;7.35;;;4.40;;
2177;SDS011;1095;50.992;6.798;2023-08-12T20:20:28;8.43;;;4.28;;
2177;SDS011;1095;50.992;6.798;2023-08-12T20:22:56;8.23;;;4.20;;
2177;SDS011;1095;50.992;6.798;2023-08-12T20:25:24;7.38;;;4.47;;
2177;SDS011;1095;50.992;6.798;2023-08-12T20:27:50;11.77;;;5.13;;
2177;SDS011;1095;50.992;6.798;2023-08-12T20:30:17;9.85;;;5.00;;
2177;SDS011;1095;50.992;6.798;2023-08-12T20:32:44;9.32;;;4.90;;
2177;SDS011;1095;50.992;6.798;2023-08-12T20:35:11;8.52;;;5.05;;
2177;SDS011;1095;50.992;6.798;2023-08-12T20:37:38;6.40;;;4.32;;
2177;SDS011;1095;50.992;6.798;2023-08-12T20:40:05;7.55;;;5.03;;
2177;SDS011;1095;50.992;6.798;2023-08-12T20:42:35;11.18;;;5.38;;
2177;SDS011;1095;50.992;6.798;2023-08-12T20:45:02;7.05;;;4.88;;
2177;SDS011;1095;50.992;6.798;2023-08-12T20:47:29;8.27;;;5.07;;
2177;SDS011;1095;50.992;6.798;2023-08-12T20:49:56;8.15;;;5.03;;
2177;SDS011;1095;50.992;6.798;2023-08-12T20:52:23;8.68;;;4.82;;
2177;SDS011;1095;50.992;6.798;2023-08-12T20:54:50;11.65;;;5.15;;
2177;SDS011;1095;50.992;6.798;2023-08-12T20:57:17;7.40;;;4.93;;
2177;SDS011;1095;50.992;6.798;2023-08-12T20:59:45;8.82;;;4.95;;
2177;SDS011;1095;50.992;6.798;2023-08-12T21:02:12;7.82;;;4.57;;
2177;SDS011;1095;50.992;6.798;2023-08-12T21:04:39;6.70;;;4.53;;
2177;SDS011;1095;50.992;6.798;2023-08-12T21:07:05;8.68;;;5.20;;
2177;SDS011;1095;50.992;6.798;2023-08-12T21:09:32;7.07;;;5.00;;
2177;SDS011;1095;50.992;6.798;2023-08-12T21:11:59;9.68;;;5.18;;
2177;SDS011;1095;50.992;6.798;2023-08-12T21:14:25;8.13;;;5.43;;
2177;SDS011;1095;50.992;6.798;2023-08-12T21:16:53;7.22;;;5.10;;
2177;SDS011;1095;50.992;6.798;2023-08-12T21:19:20;11.95;;;5.57;;
2177;SDS011;1095;50.992;6.798;2023-08-12T21:21:47;9.40;;;5.68;;
2177;SDS011;1095;50.992;6.798;2023-08-12T21:24:13;11.52;;;4.97;;
2177;SDS011;1095;50.992;6.798;2023-08-12T21:26:40;7.22;;;4.75;;
2177;SDS011;1095;50.992;6.798;2023-08-12T21:29:07;11.25;;;5.10;;
2177;SDS011;1095;50.992;6.798;2023-08-12T21:31:33;9.07;;;5.00;;
2177;SDS011;1095;50.992;6.798;2023-08-12T21:34:01;8.98;;;5.13;;
2177;SDS011;1095;50.992;6.798;2023-08-12T21:36:28;8.82;;;5.43;;
2177;SDS011;1095;50.992;6.798;2023-08-12T21:38:54;7.63;;;5.13;;
2177;SDS011;1095;50.992;6.798;2023-08-12T21:41:21;8.88;;;5.30;;
2177;SDS011;1095;50.992;6.798;2023-08-12T21:43:48;12.30;;;5.05;;
2177;SDS011;1095;50.992;6.798;2023-08-12T21:46:15;8.65;;;5.40;;
2177;SDS011;1095;50.992;6.798;2023-08-12T21:48:41;9.82;;;5.53;;
2177;SDS011;1095;50.992;6.798;2023-08-12T21:51:09;10.52;;;6.13;;
2177;SDS011;1095;50.992;6.798;2023-08-12T21:53:37;9.93;;;5.80;;
2177;SDS011;1095;50.992;6.798;2023-08-12T21:56:04;11.95;;;5.60;;
2177;SDS011;1095;50.992;6.798;2023-08-12T21:58:30;11.02;;;6.00;;
2177;SDS011;1095;50.992;6.798;2023-08-12T22:00:57;9.90;;;5.65;;
2177;SDS011;1095;50.992;6.798;2023-08-12T22:03:23;9.75;;;5.80;;
2177;SDS011;1095;50.992;6.798;2023-08-12T22:05:50;9.07;;;5.43;;
2177;SDS011;1095;50.992;6.798;2023-08-12T22:08:19;16.20;;;6.00;;
2177;SDS011;1095;50.992;6.798;2023-08-12T22:10:46;11.30;;;5.72;;
2177;SDS011;1095;50.992;6.798;2023-08-12T22:13:12;8.23;;;5.50;;
2177;SDS011;1095;50.992;6.798;2023-08-12T22:15:39;10.63;;;5.40;;
2177;SDS011;1095;50.992;6.798;2023-08-12T22:18:06;6.93;;;5.10;;
2177;SDS011;1095;50.992;6.798;2023-08-12T22:20:36;10.05;;;5.40;;
2177;SDS011;1095;50.992;6.798;2023-08-12T22:23:05;9.40;;;5.13;;
2177;SDS011;1095;50.992;6.798;2023-08-12T22:25:33;10.02;;;4.88;;
2177;SDS011;1095;50.992;6.798;2023-08-12T22:28:00;8.23;;;4.97;;
2177;SDS011;1095;50.992;6.798;2023-08-12T22:30:27;12.57;;;5.60;;
2177;SDS011;1095;50.992;6.798;2023-08-12T22:32:53;8.95;;;5.47;;
2177;SDS011;1095;50.992;6.798;2023-08-12T22:35:26;8.55;;;5.13;;
2177;SDS011;1095;50.992;6.798;2023-08-12T22:37:58;11.15;;;5.45;;
2177;SDS011;1095;50.992;6.798;2023-08-12T22:40:25;8.25;;;5.43;;
2177;SDS011;1095;50.992;6.798;2023-08-12T22:42:53;9.45;;;4.95;;
2177;SDS011;1095;50.992;6.798;2023-08-12T22:45:20;10.38;;;5.20;;
2177;SDS011;1095;50.992;6.798;2023-08-12T22:47:47;9.25;;;5.15;;
2177;SDS011;1095;50.992;6.798;2023-08-12T22:50:13;7.70;;;4.40;;
2177;SDS011;1095;50.992;6.798;2023-08-12T22:52:43;8.95;;;5.00;;
2177;SDS011;1095;50.992;6.798;2023-08-12T22:55:10;12.07;;;4.50;;
2177;SDS011;1095;50.992;6.798;2023-08-12T22:57:37;5.93;;;4.82;;
2177;SDS011;1095;50.992;6.798;2023-08-12T23:00:06;12.27;;;4.40;;
2177;SDS011;1095;50.992;6.798;2023-08-12T23:02:34;6.72;;;4.40;;
2177;SDS011;1095;50.992;6.798;2023-08-12T23:05:01;8.05;;;5.00;;
2177;SDS011;1095;50.992;6.798;2023-08-12T23:07:28;12.35;;;6.18;;
2177;SDS011;1095;50.992;6.798;2023-08-12T23:10:04;6.30;;;4.47;;
2177;SDS011;1095;50.992;6.798;2023-08-12T23:12:32;11.85;;;4.70;;
2177;SDS011;1095;50.992;6.798;2023-08-12T23:14:58;9.07;;;4.28;;
2177;SDS011;1095;50.992;6.798;2023-08-12T23:17:32;9.00;;;4.13;;
2177;SDS011;1095;50.992;6.798;2023-08-12T23:20:03;8.65;;;3.90;;
2177;SDS011;1095;50.992;6.798;2023-08-12T23:22:34;6.82;;;4.45;;
2177;SDS011;1095;50.992;6.798;2023-08-12T23:25:14;11.05;;;4.60;;
2177;SDS011;1095;50.992;6.798;2023-08-12T23:27:44;13.02;;;5.05;;
2177;SDS011;1095;50.992;6.798;2023-08-12T23:30:14;7.65;;;4.40;;
2177;SDS011;1095;50.992;6.798;2023-08-12T23:32:54;8.55;;;4.45;;
2177;SDS011;1095;50.992;6.798;2023-08-12T23:35:37;8.45;;;4.25;;
2177;SDS011;1095;50.992;6.798;2023-08-12T23:38:07;7.32;;;4.70;;
2177;SDS011;1095;50.992;6.798;2023-08-12T23:40:41;7.75;;;4.22;;
2177;SDS011;1095;50.992;6.798;2023-08-12T23:43:08;8.02;;;4.50;;
2177;SDS011;1095;50.992;6.798;2023-08-12T23:45:41;9.25;;;4.40;;
2177;SDS011;1095;50.992;6.798;2023-08-12T23:48:09;10.70;;;5.47;;
2177;SDS011;1095;50.992;6.798;2023-08-12T23:50:39;9.60;;;4.47;;
2177;SDS011;1095;50.992;6.798;2023-08-12T23:53:08;7.53;;;4.88;;
2177;SDS011;1095;50.992;6.798;2023-08-12T23:55:50;6.30;;;4.65;;
2177;SDS011;1095;50.992;6.798;2023-08-12T23:58:46;11.85;;;4.93;;
